Aviation Digital Data Service (ADDS)

Output produced by METARs form (1359 UTC 22 November 2014)
found at http://aviationweather.gov/adds/metars/
 
KCDW 221353Z AUTO VRB03KT 10SM CLR M03/M12 A3048 RMK AO2 SLP327 T10281117 TSNO
KMMU 221345Z 21005KT 15SM FEW250 M03/M08 A3049
KFWN 221353Z AUTO 21008KT 10SM UP CLR M04/M09 A3042 RMK AO2 UPB02 SLP309 P0000 T10441094
KTEB 221351Z 21005KT 10SM CLR M02/M11 A3048 RMK AO2 SLP319 T10171111
KTEB 221121Z 2212/2312 24004KT P6SM SKC 
     FM221400 24009KT P6SM FEW250 
     FM221800 23010G17KT P6SM SCT250 
     FM222200 23008KT P6SM SCT050 BKN100 
     FM230600 23004KT P6SM BKN100
       
KEWR 221351Z COR 24007KT 10SM FEW250 M01/M11 A3049 RMK AO2 SLP324 T10111111
KEWR 221121Z 2212/2318 24008KT P6SM SKC 
     FM221500 24011G17KT P6SM FEW250 
     FM221800 23013G20KT P6SM SCT250 
     FM222300 23010KT P6SM SCT050 BKN100 
     FM230600 23007KT P6SM BKN100
       
KABE 221351Z 24007KT 10SM CLR M03/M11 A3047 RMK AO2 SLP324 T10331106
KABE 221120Z 2212/2312 VRB04KT P6SM SKC 
     FM221500 22011KT P6SM SCT200 
     FM222200 VRB03KT P6SM FEW050
       
KAVP 221354Z AUTO 25005KT 10SM CLR M04/M11 A3038 RMK AO2 SLP300 T10441111
KAVP 221139Z 2212/2312 23007KT P6SM SCT150 
     FM221900 23010KT P6SM BKN050 OVC090 
     FM222300 22004KT P6SM OVC040 WS020/25043KT 
     FM230900 22004KT P6SM BKN050
       
KSWF 221345Z 25008KT 20SM SCT100 M04/M10 A3042
KSWF 221121Z 2212/2318 VRB04KT P6SM SKC 
     FM221400 24008KT P6SM FEW250 
     FM221800 24013G20KT P6SM SCT250 
     FM222200 24008KT P6SM BKN035 BKN050 
     FM230500 25005KT P6SM BKN070 AMD NOT SKED
       
KMSV 221355Z AUTO 22003KT 10SM CLR M07/M11 A3035 RMK AO1
KPOU 221353Z AUTO 21007KT 10SM CLR M02/M11 A3043 RMK AO2 SLP304 T10171111 TSNO
KPOU 221120Z 2212/2312 19004KT P6SM SKC 
     FM221300 21004KT P6SM SCT250 
     FM221700 22008KT P6SM BKN250 
     FM222200 22007KT P6SM SCT050 OVC100 
     FM230400 VRB04KT P6SM -RAPL OVC050 
     FM230800 VRB03KT P6SM -RA OVC045